»·PEaware :: N133BN KPHX-KTUS

N133BN :: KPHX-KTUS

FLIGHT INFORMATION

Flight Status: Arrived
Operator: Privately registered:
United States
More flights under this callsign
Pilot: Brad N. (26229)
Aircraft: Unknown
(PIPA)
More flights by this aircraft type
Origin: KPHX Phoenix Sky Harbor Intl
United States
Destination: KTUS Tucson Intl
United States
More flights between these airports :: More routes between these airports
Route: SEELI SACAT V16 TOTEC
File this flight plan on PilotEdge
Remarks:
Altitude:
(Current/Filed)
7,500ft
Speed:
(Current/Filed)
140kts
Departed: 18-Dec-19 10:33 PM
Arrived: 18-Dec-19 11:16 PM
Distance/Time
Traveled:
95nm/0:43
Distance/Time
To Go:
Arrived

Flight Plot

Page will automatically refresh every two minutes.


Map Options




Map Legend


Flown Route
Filed Route
Departure Airport
Arrival Airport
Navaid (VOR, NDB)
Fix

Horizontal Profiles

Position Reports

Time Latitude Longitude Heading Altitude Ground
Speed
18-Dec-19 22:17 33.443230 -112.025175 228 1137ft 0kts
18-Dec-19 22:18 33.443230 -112.025175 228 1137ft 0kts
18-Dec-19 22:19 33.443230 -112.025175 228 1137ft 0kts
18-Dec-19 22:20 33.443230 -112.025175 228 1137ft 0kts
18-Dec-19 22:21 33.443230 -112.025175 228 1137ft 0kts
18-Dec-19 22:22 33.443230 -112.025175 228 1137ft 0kts
18-Dec-19 22:23 33.443230 -112.025175 228 1137ft 0kts
18-Dec-19 22:24 33.443230 -112.025175 228 1137ft 0kts
18-Dec-19 22:25 33.443230 -112.025175 228 1137ft 0kts
18-Dec-19 22:26 33.443230 -112.025175 228 1137ft 0kts
18-Dec-19 22:27 33.443230 -112.025175 228 1137ft 0kts
18-Dec-19 22:28 33.443230 -112.025175 228 1137ft 0kts
18-Dec-19 22:29 33.443230 -112.025175 228 1137ft 0kts
18-Dec-19 22:30 33.442839 -112.025335 180 1137ft 11kts
18-Dec-19 22:31 33.441742 -112.026625 208 1137ft 0kts
18-Dec-19 22:32 33.440881 -112.025062 87 1137ft 49kts
18-Dec-19 22:33 33.440569 -111.986277 90 1582ft 162kts
18-Dec-19 22:34 33.440030 -111.942009 89 3906ft 103kts
18-Dec-19 22:35 33.427194 -111.909614 139 5450ft 132kts
18-Dec-19 22:36 33.389616 -111.872340 139 5502ft 199kts
18-Dec-19 22:37 33.346502 -111.851661 203 5500ft 161kts
18-Dec-19 22:38 33.303349 -111.863457 181 5498ft 150kts
18-Dec-19 22:39 33.261511 -111.865078 174 5498ft 148kts
18-Dec-19 22:40 33.222730 -111.850364 155 5498ft 145kts
18-Dec-19 22:41 33.184859 -111.832456 154 5499ft 145kts
18-Dec-19 22:42 33.147464 -111.813570 153 5499ft 144kts
18-Dec-19 22:43 33.108714 -111.793314 153 5503ft 165kts
18-Dec-19 22:44 33.077902 -111.776917 156 7475ft 110kts
18-Dec-19 22:45 33.040034 -111.756737 156 7501ft 168kts
18-Dec-19 22:46 32.996734 -111.733539 156 7498ft 168kts
18-Dec-19 22:47 32.953465 -111.710308 156 7497ft 169kts
18-Dec-19 22:48 32.910104 -111.687014 156 7497ft 169kts
18-Dec-19 22:49 32.866861 -111.663786 156 7514ft 169kts
18-Dec-19 22:50 32.823650 -111.639418 141 7517ft 179kts
18-Dec-19 22:51 32.783693 -111.599452 142 7519ft 186kts
18-Dec-19 22:52 32.742971 -111.558889 142 7516ft 190kts
18-Dec-19 22:53 32.701101 -111.517255 142 7513ft 194kts
18-Dec-19 22:54 32.658953 -111.475398 142 7509ft 194kts
18-Dec-19 22:55 32.616535 -111.433328 142 7505ft 195kts
18-Dec-19 22:56 32.574019 -111.391219 142 7502ft 196kts
18-Dec-19 22:57 32.531634 -111.349298 143 7463ft 194kts
18-Dec-19 22:58 32.502999 -111.320845 145 7461ft 105kts
18-Dec-19 22:59 32.479759 -111.297944 145 7462ft 104kts
18-Dec-19 23:00 32.461773 -111.280223 144 6177ft 81kts
18-Dec-19 23:01 32.445650 -111.264353 142 5076ft 49kts
18-Dec-19 23:02 32.425681 -111.245078 141 5172ft 101kts
18-Dec-19 23:03 32.403849 -111.223430 142 5172ft 101kts
18-Dec-19 23:04 32.385036 -111.204812 142 4933ft 79kts
18-Dec-19 23:05 32.360075 -111.182959 150 4410ft 141kts
18-Dec-19 23:06 32.327809 -111.150837 139 4105ft 154kts
18-Dec-19 23:07 32.293561 -111.118582 138 3845ft 149kts
18-Dec-19 23:08 32.263019 -111.090018 143 4027ft 133kts
18-Dec-19 23:09 32.233872 -111.069926 142 3897ft 113kts
18-Dec-19 23:10 32.209037 -111.048709 130 4664ft 83kts
18-Dec-19 23:11 32.185165 -111.019654 135 4141ft 137kts
18-Dec-19 23:12 32.159674 -110.991395 131 3574ft 113kts
18-Dec-19 23:13 32.142935 -110.971018 132 3244ft 90kts
18-Dec-19 23:14 32.128342 -110.954122 127 2826ft 64kts
18-Dec-19 23:15 32.121756 -110.944675 45 2646ft 0kts
18-Dec-19 23:16 32.123888 -110.943485 24 2646ft 16kts

Navigation Log

Ident Type
Flight plan parsing failed, navigation log unavailable